Time;durP1;ratioP1;P1;durP2;ratioP2;P2;SDS_P1;SDS_P2;PMS_P1;PMS_P2;Temp;Humidity;BMP_temperature;BMP_pressure;BME280_temperature;BME280_humidity;BME280_pressure;Samples;Min_cycle;Max_cycle;Signal;HPM_P1;HPM_P2
2023/08/30 00:01:26;;;;;;;25.00;16.60;;;;;;;32.55;43.98;98638.59;105682;1263;61347;-80
2023/08/30 00:03:54;;;;;;;23.20;17.90;;;;;;;32.45;44.17;98640.65;105685;1261;72551;-75
2023/08/30 00:06:21;;;;;;;;;;;;;;;32.33;44.46;98641.26;105490;1260;61611;-75
2023/08/30 00:08:47;;;;;;;19.90;16.80;;;;;;;32.37;44.37;98647.45;105675;1263;61205;-75
2023/08/30 00:11:14;;;;;;;29.20;17.90;;;;;;;32.30;44.58;98647.80;105781;1262;65921;-74
2023/08/30 00:13:42;;;;;;;22.40;17.90;;;;;;;32.29;44.69;98644.34;105414;1261;68331;-74
2023/08/30 00:16:09;;;;;;;22.70;17.70;;;;;;;32.42;44.37;98645.94;105742;1257;64044;-74
2023/08/30 00:18:36;;;;;;;26.80;18.30;;;;;;;32.39;44.37;98645.20;105666;1258;61362;-75
2023/08/30 00:21:02;;;;;;;21.50;18.00;;;;;;;32.22;44.67;98648.80;105708;1257;61103;-79
2023/08/30 00:23:29;;;;;;;24.70;18.80;;;;;;;32.16;44.89;98645.35;105686;1262;65881;-76
2023/08/30 00:25:56;;;;;;;26.60;18.50;;;;;;;32.07;45.09;98645.73;105719;1257;61345;-76
2023/08/30 00:28:23;;;;;;;23.60;18.50;;;;;;;32.01;45.31;98649.39;105716;1263;63799;-75
2023/08/30 00:30:54;;;;;;;22.30;17.60;;;;;;;32.17;44.99;98652.80;105694;1258;61880;-76
2023/08/30 00:33:21;;;;;;;29.50;18.10;;;;;;;32.23;44.79;98651.48;105426;1260;61273;-76
2023/08/30 00:35:55;;;;;;;20.70;17.10;;;;;;;32.14;44.94;98653.80;105391;1263;64645;-75
2023/08/30 00:38:22;;;;;;;24.10;17.60;;;;;;;32.05;45.17;98653.77;105554;1258;61358;-75
2023/08/30 00:40:49;;;;;;;35.50;20.00;;;;;;;32.02;45.29;98652.30;105663;1263;63706;-75
2023/08/30 00:43:16;;;;;;;20.80;18.10;;;;;;;32.13;45.02;98654.98;105675;1257;61323;-76
2023/08/30 00:45:42;;;;;;;22.50;18.90;;;;;;;32.15;44.91;98657.81;105664;1261;61239;-75
2023/08/30 00:48:09;;;;;;;21.30;17.90;;;;;;;32.02;45.22;98658.27;105338;1263;65702;-74
2023/08/30 00:50:37;;;;;;;24.60;18.70;;;;;;;31.81;45.70;98655.30;105410;1263;61377;-74
2023/08/30 00:53:05;;;;;;;29.50;19.40;;;;;;;31.82;45.72;98652.66;105661;1262;63930;-75
2023/08/30 00:55:34;;;;;;;24.90;19.00;;;;;;;31.95;45.40;98652.71;105383;1260;63096;-74
2023/08/30 00:58:01;;;;;;;;;;;;;;;32.01;45.21;98656.45;105713;1262;61360;-75
2023/08/30 01:00:32;;;;;;;22.30;18.40;;;;;;;31.92;45.43;98655.45;105374;1264;65805;-76
2023/08/30 01:02:59;;;;;;;24.70;19.90;;;;;;;31.88;45.59;98652.58;105336;1263;61502;-74
2023/08/30 01:05:27;;;;;;;;;;;;;;;31.78;45.71;98653.59;105713;1268;63981;-76
2023/08/30 01:07:54;;;;;;;23.70;19.30;;;;;;;31.80;45.69;98658.48;105309;1263;61400;-79
2023/08/30 01:10:25;;;;;;;26.20;19.00;;;;;;;31.85;45.65;98658.34;105424;1258;61430;-75
2023/08/30 01:12:54;;;;;;;23.20;19.30;;;;;;;31.84;45.60;98657.87;105708;1261;65737;-75
2023/08/30 01:15:22;;;;;;;27.80;19.70;;;;;;;31.91;45.50;98659.92;105817;1262;68715;-76
2023/08/30 01:17:49;;;;;;;24.40;19.60;;;;;;;31.91;45.42;98659.90;105676;1257;62601;-74
2023/08/30 01:20:18;;;;;;;30.10;19.60;;;;;;;31.71;45.84;98658.61;105481;1263;61954;-76
2023/08/30 01:22:54;;;;;;;22.00;19.60;;;;;;;31.60;46.18;98651.95;105723;1263;61234;-75
2023/08/30 01:25:27;;;;;;;22.20;18.40;;;;;;;31.49;46.41;98654.86;105727;1263;74390;-76
2023/08/30 01:27:54;;;;;;;27.70;19.60;;;;;;;31.41;46.64;98652.91;105724;1263;68520;-75
2023/08/30 01:30:21;;;;;;;26.70;19.90;;;;;;;31.43;46.65;98652.42;105347;1258;63762;-75
2023/08/30 01:32:47;;;;;;;27.80;19.70;;;;;;;31.25;47.11;98648.89;105320;1257;61826;-75
2023/08/30 01:35:17;;;;;;;22.50;20.10;;;;;;;31.33;46.90;98646.89;105341;1262;61356;-79
2023/08/30 01:37:45;;;;;;;24.20;20.70;;;;;;;31.31;46.98;98646.13;105371;1263;74121;-75
2023/08/30 01:40:13;;;;;;;28.20;19.60;;;;;;;31.32;47.02;98645.88;105665;1257;68587;-74
2023/08/30 01:42:40;;;;;;;25.20;19.70;;;;;;;31.39;46.83;98647.40;105439;1257;65589;-76
2023/08/30 01:45:09;;;;;;;24.80;20.80;;;;;;;31.34;46.80;98646.56;105322;1258;62322;-75
2023/08/30 01:47:36;;;;;;;25.00;20.10;;;;;;;31.25;47.13;98646.75;105406;1263;61270;-75
2023/08/30 01:50:03;;;;;;;22.30;19.80;;;;;;;31.33;46.88;98646.89;105356;1263;74587;-75
2023/08/30 01:52:30;;;;;;;28.30;19.60;;;;;;;31.30;47.03;98644.25;105727;1263;68650;-75
2023/08/30 01:54:57;;;;;;;27.40;19.70;;;;;;;31.36;46.81;98648.77;105380;1263;72543;-76
2023/08/30 01:57:24;;;;;;;23.60;20.30;;;;;;;31.27;46.99;98645.95;105333;1265;61346;-76
2023/08/30 01:59:51;;;;;;;23.90;19.50;;;;;;;31.19;47.25;98646.04;105560;1264;61321;-78
2023/08/30 02:02:17;;;;;;;24.00;19.40;;;;;;;31.29;46.95;98645.27;105402;1264;66003;-74
2023/08/30 02:04:44;;;;;;;26.00;20.60;;;;;;;31.33;46.81;98643.17;105694;1258;68466;-74
2023/08/30 02:07:19;;;;;;;22.70;19.80;;;;;;;31.17;47.24;98637.98;105662;1257;72617;-74
2023/08/30 02:09:54;;;;;;;24.50;20.30;;;;;;;31.31;46.98;98641.45;105679;1262;61346;-74
2023/08/30 02:12:21;;;;;;;26.50;20.30;;;;;;;31.48;46.48;98642.77;105322;1263;61251;-74
2023/08/30 02:14:48;;;;;;;23.40;19.50;;;;;;;31.68;45.97;98641.45;105362;1273;65776;-75
2023/08/30 02:17:15;;;;;;;30.40;20.40;;;;;;;31.56;46.20;98644.63;105392;1257;68479;-75
2023/08/30 02:19:45;;;;;;;27.20;20.80;;;;;;;31.37;46.75;98643.36;105380;1261;72545;-75
2023/08/30 02:22:12;;;;;;;26.60;19.40;;;;;;;31.39;46.72;98648.57;105364;1260;62325;-76
2023/08/30 02:24:40;;;;;;;28.20;19.40;;;;;;;31.34;46.96;98652.04;105323;1266;61501;-75
2023/08/30 02:27:07;;;;;;;27.70;19.60;;;;;;;31.40;46.83;98650.06;105631;1258;74377;-75
2023/08/30 02:29:34;;;;;;;35.10;20.30;;;;;;;31.38;46.77;98646.91;105675;1262;61338;-76
2023/08/30 02:32:01;;;;;;;23.70;18.70;;;;;;;31.28;46.91;98646.63;105665;1257;72529;-76
2023/08/30 02:34:28;;;;;;;23.60;19.10;;;;;;;31.37;46.76;98649.07;105674;1263;61738;-74
2023/08/30 02:36:54;;;;;;;25.40;20.20;;;;;;;31.46;46.59;98651.84;105397;1258;61231;-76
2023/08/30 02:39:21;;;;;;;23.80;19.90;;;;;;;31.34;46.73;98653.23;105708;1262;74404;-74
2023/08/30 02:41:47;;;;;;;23.70;19.80;;;;;;;31.45;46.58;98650.71;105701;1258;68407;-75
2023/08/30 02:44:14;;;;;;;23.60;19.10;;;;;;;31.61;46.09;98651.38;105690;1257;62611;-77
2023/08/30 02:46:41;;;;;;;24.40;19.80;;;;;;;31.55;46.23;98651.69;105635;1263;61283;-76
2023/08/30 02:49:11;;;;;;;21.90;18.70;;;;;;;31.57;46.13;98649.05;105332;1258;61408;-75
2023/08/30 02:51:37;;;;;;;23.30;19.00;;;;;;;31.58;46.22;98649.11;105392;1260;73109;-75
2023/08/30 02:54:04;;;;;;;25.50;19.70;;;;;;;31.62;45.94;98648.04;105661;1257;61353;-76
2023/08/30 02:56:31;;;;;;;30.80;19.10;;;;;;;31.67;45.87;98650.75;105690;1257;63900;-76
2023/08/30 02:58:59;;;;;;;26.50;20.30;;;;;;;31.79;45.52;98653.97;105349;1260;61302;-75
2023/08/30 03:01:25;;;;;;;32.70;20.10;;;;;;;31.77;45.51;98653.30;105341;1261;61257;-76
2023/08/30 03:03:52;;;;;;;29.00;20.80;;;;;;;31.83;45.42;98657.00;105676;1263;65939;-75
2023/08/30 03:06:19;;;;;;;25.50;19.00;;;;;;;31.95;45.15;98660.27;105359;1257;68272;-77
2023/08/30 03:08:46;;;;;;;26.70;19.90;;;;;;;32.04;44.90;98660.29;105649;1263;62649;-76
2023/08/30 03:11:13;;;;;;;31.70;20.40;;;;;;;32.05;44.89;98665.27;105651;1258;61307;-76
2023/08/30 03:13:58;;;;;;;44.10;19.70;;;;;;;32.17;44.63;98663.80;105382;1261;63060;-75
2023/08/30 03:16:24;;;;;;;29.10;20.50;;;;;;;32.18;44.58;98663.73;105649;1257;65798;-75
2023/08/30 03:18:52;;;;;;;28.80;19.40;;;;;;;32.14;44.62;98664.59;105314;1258;61263;-74
2023/08/30 03:21:18;;;;;;;24.10;19.80;;;;;;;32.04;44.88;98664.97;105702;1258;63622;-76
2023/08/30 03:23:45;;;;;;;31.40;21.40;;;;;;;32.09;44.79;98662.74;105388;1258;61420;-76
2023/08/30 03:26:16;;;;;;;27.20;20.80;;;;;;;32.07;44.83;98664.84;105682;1262;61276;-76
2023/08/30 03:28:43;;;;;;;24.40;19.90;;;;;;;32.11;44.83;98665.58;105666;1263;65832;-75
2023/08/30 03:31:20;;;;;;;25.50;20.30;;;;;;;32.09;44.79;98664.81;105735;1262;61362;-76
2023/08/30 03:33:47;;;;;;;25.50;20.30;;;;;;;32.05;44.91;98664.79;105550;1262;63704;-75
2023/08/30 03:36:16;;;;;;;24.70;18.50;;;;;;;32.07;44.77;98663.26;105388;1259;61319;-75
2023/08/30 03:38:43;;;;;;;23.90;19.40;;;;;;;31.88;45.14;98660.02;105353;1264;61392;-75
2023/08/30 03:41:12;;;;;;;26.00;21.20;;;;;;;31.94;45.06;98665.89;105275;1264;64603;-75
2023/08/30 03:43:39;;;;;;;23.40;19.90;;;;;;;31.88;45.22;98664.56;105302;1264;61276;-74
2023/08/30 03:46:06;;;;;;;28.70;19.40;;;;;;;32.01;45.01;98666.77;105263;1264;64029;-74
2023/08/30 03:48:33;;;;;;;27.10;20.50;;;;;;;32.05;44.85;98664.80;105396;1265;61341;-75
2023/08/30 03:51:00;;;;;;;24.70;21.20;;;;;;;32.02;44.86;98662.85;105294;1261;62702;-74
2023/08/30 03:53:27;;;;;;;26.50;19.30;;;;;;;31.94;45.11;98664.25;105287;1264;65704;-75
2023/08/30 03:55:53;;;;;;;30.00;20.20;;;;;;;31.96;45.11;98668.27;105229;1264;68585;-76
2023/08/30 03:58:20;;;;;;;25.80;19.50;;;;;;;31.95;45.13;98668.73;105655;1264;63832;-77
2023/08/30 04:00:47;;;;;;;28.40;21.50;;;;;;;31.99;45.11;98666.30;105662;1257;62262;-74
2023/08/30 04:03:14;;;;;;;24.60;19.50;;;;;;;32.10;44.91;98671.70;105664;1257;61340;-74
2023/08/30 04:05:41;;;;;;;37.00;21.10;;;;;;;32.14;44.80;98670.75;105211;1269;65736;-74
2023/08/30 04:08:08;;;;;;;31.30;19.70;;;;;;;32.15;44.73;98671.61;105752;1258;61377;-76
2023/08/30 04:10:40;;;;;;;27.10;21.50;;;;;;;32.21;44.59;98677.54;105474;1266;64005;-79
2023/08/30 04:13:08;;;;;;;55.70;21.50;;;;;;;32.18;44.77;98676.55;108376;1257;61125;-73
2023/08/30 04:15:35;;;;;;;31.50;20.60;;;;;;;32.15;44.69;98678.27;108899;1257;59269;-73
2023/08/30 04:18:03;;;;;;;30.40;20.30;;;;;;;32.28;44.55;98678.23;109057;1257;64519;-73
2023/08/30 04:20:30;;;;;;;33.60;20.90;;;;;;;32.36;44.37;98678.80;107105;1262;61324;-76
2023/08/30 04:22:57;;;;;;;31.40;19.70;;;;;;;32.26;44.66;98678.09;105754;1259;63734;-76
2023/08/30 04:25:24;;;;;;;35.70;19.70;;;;;;;32.35;44.51;98680.25;105824;1257;61234;-76
2023/08/30 04:27:52;;;;;;;30.50;19.80;;;;;;;32.37;44.34;98680.61;105729;1258;61189;-79
2023/08/30 04:30:20;;;;;;;32.60;19.30;;;;;;;32.30;44.37;98680.64;105540;1263;66149;-75
2023/08/30 04:32:47;;;;;;;34.40;20.40;;;;;;;32.34;44.52;98682.02;105671;1262;61269;-75
2023/08/30 04:35:13;;;;;;;27.00;19.50;;;;;;;32.50;44.26;98684.45;105671;1263;63972;-75
2023/08/30 04:37:42;;;;;;;45.50;20.00;;;;;;;32.49;44.11;98682.50;105703;1257;61899;-76
2023/08/30 04:40:10;;;;;;;36.20;20.50;;;;;;;32.52;44.06;98684.02;105671;1261;61208;-73
2023/08/30 04:42:37;;;;;;;;;;;;;;;32.58;43.83;98685.77;105738;1261;65941;-77
2023/08/30 04:45:06;;;;;;;25.10;19.40;;;;;;;32.45;44.08;98687.64;105697;1258;61368;-73
2023/08/30 04:47:34;;;;;;;38.20;19.20;;;;;;;31.99;45.22;98686.09;105645;1261;64019;-75
2023/08/30 04:50:02;;;;;;;;;;;;;;;32.15;45.13;98688.83;105346;1257;61239;-74
2023/08/30 04:52:28;;;;;;;32.20;19.90;;;;;;;32.30;44.82;98688.42;105395;1257;61350;-75
2023/08/30 04:54:56;;;;;;;;;;;;;;;32.24;44.87;98684.15;105860;1257;64752;-75
2023/08/30 04:57:25;;;;;;;21.40;17.90;;;;;;;32.17;45.13;98682.13;105865;1258;61337;-75
2023/08/30 04:59:52;;;;;;;31.30;18.70;;;;;;;32.26;45.15;98683.02;105847;1261;64023;-74
2023/08/30 05:02:19;;;;;;;29.50;18.60;;;;;;;32.36;44.99;98684.91;105868;1257;61263;-74
2023/08/30 05:05:05;;;;;;;42.80;20.10;;;;;;;32.43;44.87;98682.83;105619;1262;61315;-74
2023/08/30 05:07:32;;;;;;;29.10;18.90;;;;;;;32.51;44.52;98682.38;105794;1262;65982;-76
2023/08/30 05:09:59;;;;;;;32.40;19.70;;;;;;;32.66;44.15;98683.80;105631;1257;61313;-75
2023/08/30 05:12:26;;;;;;;24.20;18.50;;;;;;;32.99;43.64;98687.57;105854;1257;63722;-75
2023/08/30 05:14:53;;;;;;;33.80;19.10;;;;;;;33.62;42.64;98685.02;105590;1264;61195;-74
2023/08/30 05:17:20;;;;;;;32.40;18.90;;;;;;;34.30;41.25;98683.82;105811;1258;61267;-75
2023/08/30 05:19:46;;;;;;;24.90;17.40;;;;;;;34.97;40.23;98688.41;105787;1262;65914;-75
2023/08/30 05:22:14;;;;;;;35.60;18.20;;;;;;;35.11;39.82;98691.38;105543;1257;61359;-75
2023/08/30 05:24:41;;;;;;;25.20;15.10;;;;;;;35.07;39.38;98689.66;105696;1263;64031;-75
2023/08/30 05:27:11;;;;;;;20.80;15.50;;;;;;;34.94;39.50;98688.33;105811;1257;61249;-75
2023/08/30 05:29:40;;;;;;;28.40;16.00;;;;;;;34.75;39.33;98689.13;105774;1258;61352;-74
2023/08/30 05:32:07;;;;;;;29.50;16.10;;;;;;;34.37;39.81;98685.34;105686;1262;66028;-76
2023/08/30 05:34:46;;;;;;;31.60;16.20;;;;;;;34.37;39.88;98688.35;105753;1259;61263;-79
2023/08/30 05:37:39;;;;;;;27.90;15.20;;;;;;;34.52;39.77;98689.81;105555;1262;64080;-73
2023/08/30 05:40:32;;;;;;;31.50;16.30;;;;;;;34.47;39.84;98688.19;105695;1257;61238;-74
2023/08/30 05:43:00;;;;;;;28.90;15.40;;;;;;;34.56;39.57;98688.98;105734;1262;61240;-74
2023/08/30 05:45:26;;;;;;;20.60;15.00;;;;;;;34.52;39.56;98688.13;105780;1262;66041;-75
2023/08/30 05:47:53;;;;;;;35.40;16.10;;;;;;;34.50;39.56;98687.63;105551;1258;62756;-76
2023/08/30 05:50:20;;;;;;;28.70;16.40;;;;;;;34.49;39.33;98690.84;105535;1263;64007;-76
2023/08/30 05:52:47;;;;;;;21.90;14.40;;;;;;;34.63;39.43;98687.48;105755;1257;61169;-76
2023/08/30 05:55:14;;;;;;;22.40;14.40;;;;;;;34.53;39.41;98688.44;105569;1260;61242;-75
2023/08/30 05:57:42;;;;;;;23.10;14.00;;;;;;;34.55;39.45;98691.63;105847;1257;64803;-76
2023/08/30 06:00:09;;;;;;;22.60;15.40;;;;;;;34.46;39.74;98693.30;106005;1262;61193;-75
2023/08/30 06:02:41;;;;;;;59.60;18.00;;;;;;;34.24;40.06;98688.27;105759;1263;63741;-76
2023/08/30 06:05:09;;;;;;;34.60;15.90;;;;;;;33.84;40.73;98688.21;105721;1258;61253;-75
2023/08/30 06:07:35;;;;;;;24.80;15.50;;;;;;;33.94;40.60;98687.77;105763;1262;61176;-75
2023/08/30 06:10:02;;;;;;;23.70;14.90;;;;;;;33.73;40.87;98684.50;105686;1257;65837;-75
2023/08/30 06:12:29;;;;;;;25.50;15.70;;;;;;;33.90;40.75;98685.70;105691;1257;61346;-77
2023/08/30 06:14:56;;;;;;;28.00;15.40;;;;;;;33.99;40.76;98682.87;105341;1257;64075;-76
2023/08/30 06:17:23;;;;;;;43.20;17.70;;;;;;;34.00;40.68;98678.41;105676;1257;61257;-76
2023/08/30 06:19:50;;;;;;;20.80;15.00;;;;;;;33.82;41.27;98681.51;105670;1257;61228;-75
2023/08/30 06:22:16;;;;;;;22.40;15.80;;;;;;;33.98;40.69;98684.02;105660;1257;64533;-74
2023/08/30 06:24:43;;;;;;;28.40;15.00;;;;;;;33.92;40.65;98685.19;105626;1257;61286;-76
2023/08/30 06:27:10;;;;;;;25.00;15.20;;;;;;;34.06;40.61;98684.94;105671;1257;63953;-76
2023/08/30 06:29:37;;;;;;;23.90;15.00;;;;;;;34.40;40.23;98683.66;105370;1257;61277;-76
2023/08/30 06:32:04;;;;;;;29.60;16.80;;;;;;;34.41;40.16;98684.82;105687;1257;61879;-78
2023/08/30 06:34:31;;;;;;;19.30;14.50;;;;;;;34.65;39.88;98686.55;105671;1261;65740;-78
2023/08/30 06:36:58;;;;;;;28.30;16.20;;;;;;;34.70;39.77;98689.85;105412;1263;61145;-77
2023/08/30 06:39:24;;;;;;;18.80;13.60;;;;;;;34.70;39.96;98691.84;105415;1257;63734;-76
2023/08/30 06:41:51;;;;;;;20.60;14.30;;;;;;;34.88;39.79;98691.14;105750;1258;61204;-74
2023/08/30 06:44:19;;;;;;;21.10;14.00;;;;;;;34.66;40.02;98695.11;105452;1257;61234;-74
2023/08/30 06:46:46;;;;;;;23.50;14.30;;;;;;;34.64;40.06;98694.86;105738;1261;65910;-76
2023/08/30 06:49:13;;;;;;;27.90;15.00;;;;;;;34.70;39.88;98698.22;105775;1257;61266;-76
2023/08/30 06:51:40;;;;;;;26.40;15.60;;;;;;;34.80;40.02;98697.94;105784;1257;63918;-76
2023/08/30 06:54:07;;;;;;;22.40;14.80;;;;;;;34.84;39.82;98699.66;105742;1261;61381;-76
2023/08/30 06:56:34;;;;;;;27.00;14.70;;;;;;;34.77;39.89;98701.04;105730;1257;61232;-76
2023/08/30 06:59:00;;;;;;;18.70;14.80;;;;;;;34.99;39.83;98702.23;105760;1257;65832;-76
2023/08/30 07:01:27;;;;;;;25.60;14.50;;;;;;;35.35;39.50;98705.46;105764;1258;61273;-74
2023/08/30 07:03:54;;;;;;;14.90;12.50;;;;;;;35.45;38.95;98706.54;105722;1258;64067;-75
2023/08/30 07:06:21;;;;;;;22.60;14.10;;;;;;;35.60;38.51;98699.16;105734;1257;61289;-74
2023/08/30 07:08:48;;;;;;;18.80;14.50;;;;;;;35.81;38.51;98700.62;105740;1262;61096;-75
2023/08/30 07:11:15;;;;;;;33.80;14.20;;;;;;;36.01;37.99;98702.16;105412;1260;65778;-75
2023/08/30 07:13:59;;;;;;;21.50;12.80;;;;;;;36.22;37.77;98705.80;105800;1260;61352;-76
2023/08/30 07:16:26;;;;;;;26.40;13.40;;;;;;;36.39;37.61;98707.73;105719;1257;63995;-75
2023/08/30 07:18:53;;;;;;;18.00;13.00;;;;;;;36.50;37.26;98708.67;105680;1259;61426;-75
2023/08/30 07:21:19;;;;;;;21.70;13.30;;;;;;;36.78;36.74;98706.55;105727;1258;61381;-74
2023/08/30 07:23:46;;;;;;;19.90;12.30;;;;;;;36.97;36.65;98708.18;105719;1262;65941;-75
2023/08/30 07:26:13;;;;;;;24.80;13.60;;;;;;;37.42;35.97;98711.95;105718;1262;61369;-73
2023/08/30 07:28:40;;;;;;;18.00;12.70;;;;;;;37.30;35.29;98712.23;105692;1257;63983;-76
2023/08/30 07:31:06;;;;;;;30.20;12.80;;;;;;;37.32;35.49;98713.66;105723;1262;61261;-75
2023/08/30 07:33:33;;;;;;;22.20;11.50;;;;;;;37.52;34.73;98717.18;105818;1257;61283;-76
2023/08/30 07:36:00;;;;;;;29.10;11.60;;;;;;;37.18;34.98;98710.96;105702;1261;65988;-75
2023/08/30 07:38:27;;;;;;;13.20;9.90;;;;;;;37.05;34.98;98711.03;105420;1264;61349;-77
2023/08/30 07:40:53;;;;;;;22.00;11.60;;;;;;;37.02;35.06;98704.19;105747;1258;63731;-75
2023/08/30 07:43:20;;;;;;;18.20;11.20;;;;;;;37.29;34.90;98703.52;105708;1258;61235;-74
2023/08/30 07:45:47;;;;;;;20.90;11.00;;;;;;;37.35;34.96;98702.23;105721;1257;61232;-77
2023/08/30 07:48:14;;;;;;;28.80;12.00;;;;;;;37.72;34.53;98702.20;105735;1257;64591;-75
2023/08/30 07:50:40;;;;;;;24.70;15.30;;;;;;;38.34;33.41;98695.41;105749;1262;61260;-76
2023/08/30 07:53:07;;;;;;;14.90;10.00;;;;;;;38.56;32.58;98697.00;105708;1257;63702;-76
2023/08/30 07:55:34;;;;;;;;;;;;;;;38.63;31.92;98695.98;105718;1257;61242;-75
2023/08/30 07:58:01;;;;;;;20.90;9.80;;;;;;;38.29;31.83;98693.01;105708;1258;61129;-76
2023/08/30 08:00:29;;;;;;;17.70;9.20;;;;;;;38.15;32.16;98695.58;105716;1258;65820;-76
2023/08/30 08:02:55;;;;;;;16.80;8.50;;;;;;;38.01;31.97;98698.75;105718;1261;61171;-76
2023/08/30 08:05:22;;;;;;;21.10;11.90;;;;;;;37.78;31.38;98699.31;105693;1258;63751;-76
2023/08/30 08:07:52;;;;;;;28.00;9.80;;;;;;;37.70;31.75;98701.23;105707;1257;61342;-76
2023/08/30 08:10:19;;;;;;;22.40;9.90;;;;;;;37.53;32.47;98695.13;105705;1257;61229;-75
2023/08/30 08:12:46;;;;;;;17.30;9.00;;;;;;;37.70;32.59;98696.14;105444;1267;65913;-74
2023/08/30 08:15:13;;;;;;;21.10;10.10;;;;;;;37.94;32.51;98699.36;105728;1262;62820;-75
2023/08/30 08:17:40;;;;;;;16.90;8.40;;;;;;;37.73;32.42;98696.21;105711;1260;63811;-74
2023/08/30 08:20:07;;;;;;;16.60;8.70;;;;;;;37.31;32.86;98690.52;105722;1257;61342;-78
2023/08/30 08:22:34;;;;;;;19.40;9.90;;;;;;;37.45;32.78;98690.82;105528;1257;61310;-77
2023/08/30 08:25:00;;;;;;;23.50;10.20;;;;;;;38.28;31.71;98692.27;105722;1262;66012;-74
2023/08/30 08:27:27;;;;;;;21.80;9.40;;;;;;;38.76;30.96;98695.52;105706;1258;61257;-75
2023/08/30 08:29:54;;;;;;;11.90;7.70;;;;;;;39.07;30.59;98691.77;105741;1257;63738;-76
2023/08/30 08:32:21;;;;;;;15.30;8.80;;;;;;;39.03;30.44;98689.12;105693;1257;61399;-73
2023/08/30 08:34:48;;;;;;;10.60;7.20;;;;;;;38.58;30.81;98692.36;105721;1258;61356;-75
2023/08/30 08:37:14;;;;;;;14.10;8.60;;;;;;;38.40;30.97;98688.86;105717;1257;65716;-74
2023/08/30 08:39:42;;;;;;;14.60;8.40;;;;;;;38.55;30.91;98688.49;105741;1258;61332;-75
2023/08/30 08:42:09;;;;;;;15.00;8.00;;;;;;;38.92;30.78;98689.56;105548;1261;226532;-78
2023/08/30 08:44:36;;;;;;;13.10;7.00;;;;;;;39.40;30.28;98693.83;105724;1257;61221;-76
2023/08/30 08:47:03;;;;;;;13.70;6.90;;;;;;;39.88;29.55;98693.39;105715;1262;61233;-72
2023/08/30 08:49:31;;;;;;;16.10;7.70;;;;;;;39.94;29.16;98691.89;105357;1258;65912;-75
2023/08/30 08:51:57;;;;;;;23.10;8.10;;;;;;;39.83;29.37;98690.00;105733;1257;61273;-75
2023/08/30 08:54:24;;;;;;;12.00;7.40;;;;;;;40.06;29.27;98683.79;105378;1257;63639;-71
2023/08/30 08:56:51;;;;;;;17.70;8.50;;;;;;;39.72;29.84;98683.54;105684;1262;61253;-75
2023/08/30 08:59:19;;;;;;;27.70;9.00;;;;;;;39.64;29.81;98686.63;105607;1257;61330;-74
2023/08/30 09:01:46;;;;;;;9.80;8.20;;;;;;;39.88;29.47;98683.57;105747;1257;65601;-81
2023/08/30 09:04:13;;;;;;;18.60;9.00;;;;;;;39.96;29.08;98679.67;105744;1257;62776;-74
2023/08/30 09:06:40;;;;;;;12.10;7.90;;;;;;;39.68;29.79;98674.98;105834;1262;63699;-74
2023/08/30 09:09:08;;;;;;;14.10;8.00;;;;;;;39.42;30.19;98677.58;105713;1258;61323;-74
2023/08/30 09:11:35;;;;;;;;;;;;;;;38.99;30.49;98676.41;105760;1257;61276;-74
2023/08/30 09:14:19;;;;;;;18.30;8.50;;;;;;;38.95;30.82;98679.46;105770;1261;65924;-76
2023/08/30 09:16:55;;;;;;;17.20;8.00;;;;;;;39.18;30.88;98673.83;105724;1261;61163;-73
2023/08/30 09:19:22;;;;;;;16.80;7.80;;;;;;;39.53;30.37;98667.97;105789;1257;63816;-73
2023/08/30 09:21:56;;;;;;;11.50;7.30;;;;;;;39.64;29.99;98670.44;105713;1261;61174;-77
2023/08/30 09:24:23;;;;;;;12.30;8.50;;;;;;;39.21;30.12;98663.71;105781;1258;61321;-74
2023/08/30 09:26:52;;;;;;;16.00;8.20;;;;;;;38.75;30.86;98667.20;105409;1263;65861;-74
2023/08/30 09:29:19;;;;;;;11.10;7.60;;;;;;;38.50;31.23;98665.95;105756;1259;61327;-75
2023/08/30 09:31:46;;;;;;;14.30;8.90;;;;;;;38.31;31.30;98660.08;105760;1261;63822;-77
2023/08/30 09:34:13;;;;;;;16.50;9.30;;;;;;;38.07;31.49;98662.59;105702;1257;61204;-74
2023/08/30 09:36:41;;;;;;;24.00;11.10;;;;;;;38.22;30.98;98658.06;105688;1257;61296;-73
2023/08/30 09:39:12;;;;;;;28.10;11.00;;;;;;;38.09;30.73;98646.98;105753;1257;65946;-73
2023/08/30 09:41:47;;;;;;;23.50;9.70;;;;;;;37.88;30.77;98646.05;105453;1257;61344;-74
2023/08/30 09:44:24;;;;;;;12.60;8.80;;;;;;;38.37;30.41;98644.17;105719;1262;63935;-79
2023/08/30 09:46:52;;;;;;;21.20;8.50;;;;;;;38.93;29.64;98632.36;105419;1259;61487;-74
2023/08/30 09:49:22;;;;;;;16.60;9.10;;;;;;;38.80;29.62;98644.77;105763;1260;61231;-76
2023/08/30 09:51:51;;;;;;;15.50;8.30;;;;;;;39.29;28.76;98653.17;105789;1258;64572;-74
2023/08/30 09:54:20;;;;;;;16.30;8.60;;;;;;;39.22;28.62;98635.95;105716;1262;61234;-73
2023/08/30 09:56:53;;;;;;;12.60;8.30;;;;;;;38.89;29.00;98637.20;105708;1257;63744;-75
2023/08/30 09:59:20;;;;;;;33.60;8.90;;;;;;;38.98;29.04;98634.87;105707;1258;61342;-74
2023/08/30 10:01:54;;;;;;;9.20;6.40;;;;;;;38.72;28.86;98618.48;105369;1257;61371;-74
2023/08/30 10:04:22;;;;;;;11.60;8.00;;;;;;;38.88;29.06;98626.23;105393;1259;65916;-73
2023/08/30 10:06:53;;;;;;;16.10;7.60;;;;;;;39.18;28.80;98623.38;105394;1257;61250;-74
2023/08/30 10:09:20;;;;;;;13.00;8.00;;;;;;;39.07;28.72;98622.84;105456;1257;63968;-73
2023/08/30 10:11:47;;;;;;;;;;;;;;;39.10;29.08;98619.57;105839;1258;61315;-74
2023/08/30 10:14:14;;;;;;;19.60;8.00;;;;;;;39.36;28.94;98623.07;105485;1257;61273;-77
2023/08/30 10:16:46;;;;;;;;;;;;;;;40.00;28.32;98629.55;106991;1257;65812;-72
2023/08/30 10:19:19;;;;;;;14.80;7.30;;;;;;;39.63;28.18;98623.05;108715;1257;59235;-75
2023/08/30 10:21:50;;;;;;;17.60;7.70;;;;;;;39.01;29.00;98617.84;108843;1257;62657;-74
2023/08/30 10:24:18;;;;;;;21.00;8.50;;;;;;;38.90;29.47;98616.31;107301;1257;61277;-74
2023/08/30 10:27:03;;;;;;;17.40;8.40;;;;;;;38.87;29.74;98611.46;105262;1257;61321;-74
2023/08/30 10:29:32;;;;;;;12.50;7.80;;;;;;;38.94;29.74;98610.77;105768;1257;64691;-82
2023/08/30 10:32:05;;;;;;;15.80;8.60;;;;;;;39.23;28.87;98606.32;105748;1262;61247;-77
2023/08/30 10:34:36;;;;;;;12.60;8.20;;;;;;;39.67;28.51;98604.64;105416;1263;64022;-74
2023/08/30 10:37:10;;;;;;;11.10;7.50;;;;;;;39.96;28.30;98602.05;105713;1261;61269;-75
2023/08/30 10:39:40;;;;;;;11.30;7.60;;;;;;;40.23;28.08;98601.60;105766;1257;61257;-74
2023/08/30 10:42:15;;;;;;;15.20;8.70;;;;;;;40.47;27.81;98600.00;105724;1261;65989;-74
2023/08/30 10:45:07;;;;;;;11.20;7.20;;;;;;;40.31;27.27;98595.44;105371;1257;62409;-77
2023/08/30 10:48:00;;;;;;;11.60;7.80;;;;;;;40.10;27.31;98594.88;105339;1260;62726;-72
2023/08/30 10:50:30;;;;;;;12.50;7.40;;;;;;;39.90;27.72;98589.70;105376;1260;61354;-71
2023/08/30 10:52:57;;;;;;;13.10;8.10;;;;;;;39.64;28.03;98588.59;105403;1260;61343;-73
2023/08/30 10:55:24;;;;;;;15.50;8.30;;;;;;;39.36;28.31;98580.17;105294;1267;66459;-73
2023/08/30 10:58:02;;;;;;;15.50;8.40;;;;;;;39.26;28.46;98573.95;105418;1264;61333;-74
2023/08/30 11:00:30;;;;;;;15.20;7.90;;;;;;;38.94;29.11;98567.02;105385;1260;62977;-72
2023/08/30 11:02:57;;;;;;;16.20;7.10;;;;;;;38.73;29.28;98563.40;105266;1260;61212;-77
2023/08/30 11:05:26;;;;;;;11.30;7.50;;;;;;;38.63;29.14;98556.15;105354;1260;61292;-76
2023/08/30 11:07:53;;;;;;;13.30;8.30;;;;;;;38.57;29.01;98550.79;105682;1261;66092;-73
2023/08/30 11:10:20;;;;;;;10.70;8.10;;;;;;;38.81;28.87;98550.86;105722;1257;68579;-73
2023/08/30 11:12:49;;;;;;;18.20;8.50;;;;;;;39.12;28.18;98549.52;105680;1257;63992;-75
2023/08/30 11:15:16;;;;;;;13.10;7.70;;;;;;;39.16;27.89;98554.06;105651;1258;61279;-75
2023/08/30 11:17:43;;;;;;;10.40;6.90;;;;;;;39.33;28.17;98548.42;105729;1257;61333;-75
2023/08/30 11:20:11;;;;;;;9.20;6.70;;;;;;;39.58;27.75;98544.70;105668;1259;65826;-74